Time;durP1;ratioP1;P1;durP2;ratioP2;P2;SDS_P1;SDS_P2;PMS_P1;PMS_P2;Temp;Humidity;BMP_temperature;BMP_pressure;BME280_temperature;BME280_humidity;BME280_pressure;Samples;Min_cycle;Max_cycle;Signal;HPM_P1;HPM_P2
2023/08/24 00:00:33;;;;;;;3.20;1.80;;;;;;;;;;8271900;28;20053;-55
2023/08/24 00:04:37;;;;;;;2.58;1.45;;;;;;;;;;8267705;28;20025;-55
2023/08/24 00:08:37;;;;;;;2.22;1.67;;;;;;;;;;8271160;28;20563;-54
2023/08/24 00:12:37;;;;;;;1.70;1.60;;;;;;;;;;8272261;28;20041;-56
2023/08/24 00:16:38;;;;;;;2.30;2.10;;;;;;;;;;8271469;28;20068;-55
2023/08/24 00:20:38;;;;;;;3.97;1.90;;;;;;;;;;8268459;28;20026;-54
2023/08/24 00:24:38;;;;;;;3.03;1.77;;;;;;;;;;8269809;28;20423;-55
2023/08/24 00:28:39;;;;;;;6.63;1.90;;;;;;;;;;8268879;28;20117;-55
2023/08/24 00:32:39;;;;;;;2.83;1.60;;;;;;;;;;8271522;28;20038;-56
2023/08/24 00:36:39;;;;;;;3.50;1.70;;;;;;;;;;8274107;28;20056;-56
2023/08/24 00:40:41;;;;;;;2.33;1.80;;;;;;;;;;8269704;28;20036;-56
2023/08/24 00:44:43;;;;;;;2.00;1.63;;;;;;;;;;8268282;28;20875;-56
2023/08/24 00:48:43;;;;;;;1.65;1.48;;;;;;;;;;8267851;28;20051;-56
2023/08/24 00:52:43;;;;;;;5.57;1.73;;;;;;;;;;8272351;28;20088;-55
2023/08/24 00:56:44;;;;;;;2.97;1.50;;;;;;;;;;8268480;28;20029;-56
2023/08/24 01:00:44;;;;;;;5.25;1.90;;;;;;;;;;8267721;28;20296;-56
2023/08/24 01:04:46;;;;;;;2.05;1.83;;;;;;;;;;8265377;28;20030;-56
2023/08/24 01:08:46;;;;;;;2.85;1.83;;;;;;;;;;8269066;28;20514;-56
2023/08/24 01:12:52;;;;;;;5.18;1.83;;;;;;;;;;8269205;28;20025;-56
2023/08/24 01:16:54;;;;;;;3.05;1.88;;;;;;;;;;8267013;28;20074;-55
2023/08/24 01:20:54;;;;;;;3.38;1.90;;;;;;;;;;8271062;28;20022;-56
2023/08/24 01:24:58;;;;;;;6.15;1.67;;;;;;;;;;8264772;28;20045;-55
2023/08/24 01:28:58;;;;;;;2.83;1.92;;;;;;;;;;8264427;28;20609;-56
2023/08/24 01:32:58;;;;;;;4.10;2.00;;;;;;;;;;8269295;28;20040;-56
2023/08/24 01:36:59;;;;;;;3.60;1.75;;;;;;;;;;8267173;28;20057;-55
2023/08/24 01:40:59;;;;;;;3.57;1.80;;;;;;;;;;8271732;28;20040;-56
2023/08/24 01:45:01;;;;;;;3.10;1.83;;;;;;;;;;8269682;28;20272;-55
2023/08/24 01:49:03;;;;;;;2.33;1.67;;;;;;;;;;8272333;28;20176;-56
2023/08/24 01:53:03;;;;;;;3.17;2.10;;;;;;;;;;8267880;28;20029;-55
2023/08/24 01:57:06;;;;;;;2.63;1.83;;;;;;;;;;8267284;28;20122;-56
2023/08/24 02:01:08;;;;;;;4.03;1.98;;;;;;;;;;8269055;28;20053;-55
2023/08/24 02:05:08;;;;;;;2.22;1.80;;;;;;;;;;8268581;28;21838;-56
2023/08/24 02:09:08;;;;;;;4.37;1.90;;;;;;;;;;8269695;28;20072;-55
2023/08/24 02:13:08;;;;;;;2.07;1.70;;;;;;;;;;8267360;28;20264;-56
2023/08/24 02:17:09;;;;;;;8.57;1.70;;;;;;;;;;8266830;28;20057;-56
2023/08/24 02:21:11;;;;;;;2.33;1.40;;;;;;;;;;8267746;28;20022;-56
2023/08/24 02:25:11;;;;;;;2.58;1.80;;;;;;;;;;8265396;28;20035;-56
2023/08/24 02:29:11;;;;;;;1.60;1.50;;;;;;;;;;8268952;28;20132;-56
2023/08/24 02:33:12;;;;;;;2.58;1.75;;;;;;;;;;8268177;28;20040;-55
2023/08/24 02:37:12;;;;;;;1.70;1.60;;;;;;;;;;8273523;28;20785;-55
2023/08/24 02:41:14;;;;;;;4.15;1.67;;;;;;;;;;8272518;28;20029;-56
2023/08/24 02:45:14;;;;;;;1.88;1.45;;;;;;;;;;8273785;28;20107;-55
2023/08/24 02:49:14;;;;;;;4.07;1.90;;;;;;;;;;8271716;28;20021;-56
2023/08/24 02:53:14;;;;;;;2.10;1.90;;;;;;;;;;8271756;28;20026;-56
2023/08/24 02:57:15;;;;;;;3.72;2.30;;;;;;;;;;8259582;28;20475;-56
2023/08/24 03:01:15;;;;;;;5.63;2.50;;;;;;;;;;8271971;28;20153;-56
2023/08/24 03:05:15;;;;;;;3.90;2.10;;;;;;;;;;8273451;28;20033;-56
2023/08/24 03:09:15;;;;;;;2.47;1.77;;;;;;;;;;8272951;28;20030;-55
2023/08/24 03:13:16;;;;;;;2.60;1.58;;;;;;;;;;8274066;28;20021;-56
2023/08/24 03:17:16;;;;;;;4.40;1.93;;;;;;;;;;8269559;28;20043;-55
2023/08/24 03:21:16;;;;;;;3.90;2.40;;;;;;;;;;8273318;28;20029;-56
2023/08/24 03:25:16;;;;;;;2.53;1.73;;;;;;;;;;8271582;28;20056;-56
2023/08/24 03:29:16;;;;;;;3.05;2.10;;;;;;;;;;8273422;28;20390;-56
2023/08/24 03:33:17;;;;;;;3.87;2.50;;;;;;;;;;8273612;28;20095;-56
2023/08/24 03:37:17;;;;;;;5.18;2.80;;;;;;;;;;8274298;28;20104;-56
2023/08/24 03:41:17;;;;;;;3.93;2.57;;;;;;;;;;8271681;28;20665;-56
2023/08/24 03:45:17;;;;;;;5.18;2.80;;;;;;;;;;8272353;28;20264;-56
2023/08/24 03:49:18;;;;;;;2.53;2.20;;;;;;;;;;8274399;28;20014;-56
2023/08/24 03:53:19;;;;;;;4.15;2.05;;;;;;;;;;8271644;28;20053;-56
2023/08/24 03:57:20;;;;;;;3.80;2.35;;;;;;;;;;8273640;28;20109;-56
2023/08/24 04:01:21;;;;;;;4.05;2.42;;;;;;;;;;8275017;28;20155;-56
2023/08/24 04:05:21;;;;;;;5.78;2.28;;;;;;;;;;8270885;28;20017;-56
2023/08/24 04:09:21;;;;;;;5.47;2.40;;;;;;;;;;8273224;28;20129;-56
2023/08/24 04:13:22;;;;;;;2.37;2.13;;;;;;;;;;8267841;28;20731;-56
2023/08/24 04:17:22;;;;;;;2.90;2.27;;;;;;;;;;8273382;28;20559;-55
2023/08/24 04:21:22;;;;;;;5.73;2.30;;;;;;;;;;8271814;28;20025;-55
2023/08/24 04:25:22;;;;;;;2.40;2.20;;;;;;;;;;8273048;28;20782;-55
2023/08/24 04:29:22;;;;;;;4.80;2.50;;;;;;;;;;8274323;28;20022;-56
2023/08/24 04:33:23;;;;;;;2.75;2.22;;;;;;;;;;8269702;28;20046;-56
2023/08/24 04:37:23;;;;;;;3.80;2.22;;;;;;;;;;8270178;28;20041;-55
2023/08/24 04:41:23;;;;;;;6.25;2.50;;;;;;;;;;8269988;28;20060;-56
2023/08/24 04:45:23;;;;;;;5.43;2.40;;;;;;;;;;8266375;28;20137;-56
2023/08/24 04:49:23;;;;;;;7.30;2.40;;;;;;;;;;8266709;28;20014;-56
2023/08/24 04:53:24;;;;;;;4.38;2.60;;;;;;;;;;8270121;28;20033;-56
2023/08/24 04:57:24;;;;;;;4.25;2.53;;;;;;;;;;8269517;28;20014;-56
2023/08/24 05:01:24;;;;;;;8.45;2.80;;;;;;;;;;8267425;28;20514;-56
2023/08/24 05:05:25;;;;;;;9.83;3.33;;;;;;;;;;8268908;28;20026;-56
2023/08/24 05:09:25;;;;;;;5.00;2.80;;;;;;;;;;8269622;28;20061;-56
2023/08/24 05:13:25;;;;;;;5.10;2.95;;;;;;;;;;8271466;28;20027;-56
2023/08/24 05:17:27;;;;;;;4.57;2.65;;;;;;;;;;8268420;28;20042;-56
2023/08/24 05:21:28;;;;;;;3.75;2.58;;;;;;;;;;8269803;28;20029;-55
2023/08/24 05:25:28;;;;;;;3.22;2.75;;;;;;;;;;8267280;28;20057;-56
2023/08/24 05:29:28;;;;;;;3.63;2.70;;;;;;;;;;8272812;28;20046;-56
2023/08/24 05:33:30;;;;;;;4.53;2.50;;;;;;;;;;8265693;28;20578;-56
2023/08/24 05:37:31;;;;;;;4.57;2.70;;;;;;;;;;8273276;28;20081;-57
2023/08/24 05:41:31;;;;;;;4.57;2.70;;;;;;;;;;8266928;28;20125;-56
2023/08/24 05:45:31;;;;;;;6.10;2.58;;;;;;;;;;8268246;28;20257;-56
2023/08/24 05:49:32;;;;;;;6.00;2.80;;;;;;;;;;8271153;28;20026;-56
2023/08/24 05:53:32;;;;;;;5.95;2.35;;;;;;;;;;8268688;28;20116;-56
2023/08/24 05:57:32;;;;;;;4.03;2.58;;;;;;;;;;8269160;28;20512;-56
2023/08/24 06:01:32;;;;;;;5.73;2.60;;;;;;;;;;8270021;28;20887;-57
2023/08/24 06:05:33;;;;;;;3.23;2.50;;;;;;;;;;8261993;28;20022;-57
2023/08/24 06:09:34;;;;;;;4.20;2.50;;;;;;;;;;8259808;28;20021;-57
2023/08/24 06:13:34;;;;;;;4.90;2.55;;;;;;;;;;8260144;28;20554;-56
2023/08/24 06:17:35;;;;;;;3.03;2.30;;;;;;;;;;8255011;28;20042;-57
2023/08/24 06:21:35;;;;;;;5.68;2.08;;;;;;;;;;8257105;28;20124;-57
2023/08/24 06:25:35;;;;;;;5.15;2.30;;;;;;;;;;8254956;28;20693;-57
2023/08/24 06:29:35;;;;;;;3.58;2.15;;;;;;;;;;8259007;28;20072;-57
2023/08/24 06:33:36;;;;;;;3.90;2.50;;;;;;;;;;8265351;28;20026;-57
2023/08/24 06:37:37;;;;;;;3.58;2.30;;;;;;;;;;8257260;28;20014;-57
2023/08/24 06:41:37;;;;;;;6.20;2.35;;;;;;;;;;8255329;28;20067;-57
2023/08/24 06:45:37;;;;;;;6.40;2.35;;;;;;;;;;8260908;28;20132;-57
2023/08/24 06:49:37;;;;;;;4.63;2.80;;;;;;;;;;8258263;28;20607;-57
2023/08/24 06:53:37;;;;;;;9.25;2.53;;;;;;;;;;8258179;28;20037;-57
2023/08/24 06:57:38;;;;;;;3.92;2.17;;;;;;;;;;8256835;28;20568;-57
2023/08/24 07:01:38;;;;;;;2.85;2.20;;;;;;;;;;8258787;28;20164;-57
2023/08/24 07:05:38;;;;;;;4.57;2.30;;;;;;;;;;8253284;28;20072;-56
2023/08/24 07:09:38;;;;;;;4.35;2.40;;;;;;;;;;8256324;28;20086;-57
2023/08/24 07:13:38;;;;;;;3.92;2.38;;;;;;;;;;8255582;28;20557;-57
2023/08/24 07:17:39;;;;;;;7.25;2.25;;;;;;;;;;8261178;28;20034;-55
2023/08/24 07:21:39;;;;;;;3.20;2.50;;;;;;;;;;8262802;28;20036;-56
2023/08/24 07:25:40;;;;;;;4.30;2.50;;;;;;;;;;8261783;28;20026;-56
2023/08/24 07:29:41;;;;;;;5.00;2.10;;;;;;;;;;8262907;28;20340;-56
2023/08/24 07:33:43;;;;;;;5.38;2.38;;;;;;;;;;8260946;28;20068;-57
2023/08/24 07:37:43;;;;;;;4.25;2.30;;;;;;;;;;8263727;28;20083;-56
2023/08/24 07:41:44;;;;;;;2.55;2.25;;;;;;;;;;8262641;28;20040;-56
2023/08/24 07:45:44;;;;;;;4.47;2.40;;;;;;;;;;8265872;28;20130;-56
2023/08/24 07:49:45;;;;;;;4.78;2.40;;;;;;;;;;8262819;28;20390;-56
2023/08/24 07:53:45;;;;;;;3.65;2.40;;;;;;;;;;8263428;28;20499;-56
2023/08/24 07:57:47;;;;;;;3.65;2.55;;;;;;;;;;8262143;28;20337;-56
2023/08/24 08:01:47;;;;;;;4.88;2.63;;;;;;;;;;8263323;28;20895;-57
2023/08/24 08:05:48;;;;;;;2.92;2.10;;;;;;;;;;8257927;28;20033;-57
2023/08/24 08:09:48;;;;;;;3.55;2.38;;;;;;;;;;8259146;28;20067;-57
2023/08/24 08:13:48;;;;;;;2.83;2.47;;;;;;;;;;8258092;28;20033;-56
2023/08/24 08:17:49;;;;;;;5.45;2.50;;;;;;;;;;8258673;28;20297;-56
2023/08/24 08:21:49;;;;;;;3.58;2.20;;;;;;;;;;8266805;28;20051;-57
2023/08/24 08:25:50;;;;;;;3.67;2.30;;;;;;;;;;8259117;28;20112;-57
2023/08/24 08:29:50;;;;;;;4.35;2.17;;;;;;;;;;8254405;28;20021;-57
2023/08/24 08:33:51;;;;;;;3.92;2.45;;;;;;;;;;8264790;28;20049;-57
2023/08/24 08:37:53;;;;;;;4.43;2.20;;;;;;;;;;8260012;28;20030;-57
2023/08/24 08:41:54;;;;;;;3.83;2.30;;;;;;;;;;8253806;28;20121;-57
2023/08/24 08:45:55;;;;;;;3.17;2.40;;;;;;;;;;8257615;28;20511;-57
2023/08/24 08:49:55;;;;;;;4.60;2.63;;;;;;;;;;8257629;28;20038;-57
2023/08/24 08:53:55;;;;;;;3.85;2.03;;;;;;;;;;8262201;28;20056;-57
2023/08/24 08:57:58;;;;;;;8.23;2.30;;;;;;;;;;8261785;28;20496;-57
2023/08/24 09:02:00;;;;;;;8.10;2.38;;;;;;;;;;8263587;28;20499;-57
2023/08/24 09:06:01;;;;;;;6.60;2.55;;;;;;;;;;8262195;28;20029;-57
2023/08/24 09:10:02;;;;;;;2.72;2.10;;;;;;;;;;8262156;28;20025;-57
2023/08/24 09:14:02;;;;;;;2.60;2.30;;;;;;;;;;8264831;28;20540;-57
2023/08/24 09:18:03;;;;;;;8.25;2.00;;;;;;;;;;8261090;28;20099;-57
2023/08/24 09:22:03;;;;;;;8.98;2.28;;;;;;;;;;8260933;28;20468;-57
2023/08/24 09:26:04;;;;;;;7.70;2.10;;;;;;;;;;8261992;28;20339;-57
2023/08/24 09:30:08;;;;;;;6.10;2.10;;;;;;;;;;8263008;28;20048;-58
2023/08/24 09:34:08;;;;;;;4.65;2.13;;;;;;;;;;8259669;28;21475;-58
2023/08/24 09:38:18;;;;;;;6.43;2.03;;;;;;;;;;8262765;28;20092;-58
2023/08/24 09:42:24;;;;;;;4.95;1.92;;;;;;;;;;8261661;28;20022;-58
2023/08/24 09:46:24;;;;;;;4.22;2.10;;;;;;;;;;8260032;28;20029;-57
2023/08/24 09:50:25;;;;;;;4.87;2.10;;;;;;;;;;8261886;28;20056;-58
2023/08/24 09:54:26;;;;;;;3.78;1.95;;;;;;;;;;8259222;28;20121;-58
2023/08/24 09:58:27;;;;;;;4.17;2.10;;;;;;;;;;8270536;28;20033;-57
2023/08/24 10:02:30;;;;;;;2.75;1.67;;;;;;;;;;8265116;28;20284;-58
2023/08/24 10:06:30;;;;;;;3.40;1.90;;;;;;;;;;8261213;28;20026;-57
2023/08/24 10:10:32;;;;;;;4.95;1.90;;;;;;;;;;8262190;28;20112;-57
2023/08/24 10:14:36;;;;;;;3.47;1.93;;;;;;;;;;8260657;28;20041;-57
2023/08/24 10:18:36;;;;;;;4.00;1.60;;;;;;;;;;8260048;28;20038;-58
2023/08/24 10:22:39;;;;;;;4.13;2.00;;;;;;;;;;8262235;28;20022;-58
2023/08/24 10:26:40;;;;;;;6.40;1.90;;;;;;;;;;8260513;28;20257;-58
2023/08/24 10:30:43;;;;;;;5.78;2.08;;;;;;;;;;8253332;28;20758;-58
2023/08/24 10:34:43;;;;;;;8.52;2.40;;;;;;;;;;8260013;28;20064;-57
2023/08/24 10:38:44;;;;;;;5.60;2.00;;;;;;;;;;8257379;28;20029;-58
2023/08/24 10:42:45;;;;;;;8.45;2.22;;;;;;;;;;8259227;28;20195;-58
2023/08/24 10:47:05;;;;;;;4.97;2.00;;;;;;;;;;8260858;28;20116;-58
2023/08/24 10:51:16;;;;;;;8.45;2.00;;;;;;;;;;8252283;28;20148;-58
2023/08/24 10:55:23;;;;;;;5.05;2.03;;;;;;;;;;8258977;28;20100;-58
2023/08/24 10:59:23;;;;;;;7.07;2.50;;;;;;;;;;8261072;28;20451;-58
2023/08/24 11:03:33;;;;;;;3.80;2.20;;;;;;;;;;8261250;28;20439;-58
2023/08/24 11:07:34;;;;;;;2.55;1.80;;;;;;;;;;8262476;28;21073;-58
2023/08/24 11:11:34;;;;;;;3.47;2.20;;;;;;;;;;8256706;28;20120;-58
2023/08/24 11:15:40;;;;;;;5.00;2.03;;;;;;;;;;8255271;28;20029;-58
2023/08/24 11:19:46;;;;;;;5.30;2.35;;;;;;;;;;8261936;28;20140;-58
2023/08/24 11:23:47;;;;;;;5.10;2.50;;;;;;;;;;8257868;28;20805;-58
2023/08/24 11:27:48;;;;;;;6.85;2.40;;;;;;;;;;8261156;28;20040;-58
2023/08/24 11:31:51;;;;;;;5.47;2.30;;;;;;;;;;8256282;28;20534;-58
2023/08/24 11:35:52;;;;;;;4.05;2.10;;;;;;;;;;8259023;28;20032;-58
2023/08/24 11:39:53;;;;;;;6.22;2.20;;;;;;;;;;8261750;28;20188;-58
2023/08/24 11:44:00;;;;;;;6.43;2.15;;;;;;;;;;8261405;28;20313;-58
2023/08/24 11:48:01;;;;;;;6.20;2.20;;;;;;;;;;8259789;28;20418;-58
2023/08/24 11:52:01;;;;;;;6.85;2.25;;;;;;;;;;8259725;28;20029;-58
2023/08/24 11:56:02;;;;;;;9.07;2.97;;;;;;;;;;8259908;28;20033;-58
2023/08/24 12:00:02;;;;;;;6.93;2.40;;;;;;;;;;8259836;28;20066;-57
2023/08/24 12:04:03;;;;;;;3.92;2.10;;;;;;;;;;8256696;28;20034;-58
2023/08/24 12:08:03;;;;;;;7.47;2.60;;;;;;;;;;8255934;28;20018;-58
2023/08/24 12:12:04;;;;;;;9.70;2.50;;;;;;;;;;8259758;28;20243;-58
2023/08/24 12:16:04;;;;;;;4.88;2.40;;;;;;;;;;8255859;28;20053;-59
2023/08/24 12:20:06;;;;;;;4.93;2.20;;;;;;;;;;8261277;28;20065;-58
2023/08/24 12:24:08;;;;;;;4.90;2.08;;;;;;;;;;8260937;28;20021;-58
2023/08/24 12:28:14;;;;;;;5.70;2.20;;;;;;;;;;8256398;28;20065;-59
2023/08/24 12:32:16;;;;;;;3.42;2.05;;;;;;;;;;8253323;28;20148;-58
2023/08/24 12:36:16;;;;;;;5.15;2.28;;;;;;;;;;8254803;28;20026;-58
2023/08/24 12:40:16;;;;;;;6.78;2.30;;;;;;;;;;8256756;28;20182;-59
2023/08/24 12:44:16;;;;;;;7.82;2.17;;;;;;;;;;8252119;28;20620;-57
2023/08/24 12:48:16;;;;;;;2.55;1.92;;;;;;;;;;8254682;28;20100;-57
2023/08/24 12:52:17;;;;;;;1.95;1.75;;;;;;;;;;8248407;28;20430;-57
2023/08/24 12:56:17;;;;;;;8.02;2.03;;;;;;;;;;8254429;28;20026;-58
2023/08/24 13:00:17;;;;;;;5.38;1.80;;;;;;;;;;8252522;28;20382;-57
2023/08/24 13:04:18;;;;;;;6.20;2.15;;;;;;;;;;8251488;28;20018;-57
2023/08/24 13:08:18;;;;;;;5.88;2.30;;;;;;;;;;8254053;28;20388;-57
2023/08/24 13:12:18;;;;;;;7.72;2.83;;;;;;;;;;8256000;28;20560;-57
2023/08/24 13:16:18;;;;;;;3.55;2.33;;;;;;;;;;8254147;28;20041;-57
2023/08/24 13:20:18;;;;;;;4.88;2.25;;;;;;;;;;8257581;28;20029;-57
2023/08/24 13:24:18;;;;;;;2.83;2.40;;;;;;;;;;8256247;28;20021;-57
2023/08/24 13:28:18;;;;;;;5.40;2.10;;;;;;;;;;8261250;28;20017;-57
2023/08/24 13:32:19;;;;;;;4.13;2.42;;;;;;;;;;8260885;28;20458;-57
2023/08/24 13:36:19;;;;;;;7.65;2.45;;;;;;;;;;8252287;28;20029;-57
2023/08/24 13:40:20;;;;;;;5.70;2.50;;;;;;;;;;8255424;28;20017;-57
2023/08/24 13:44:20;;;;;;;4.30;2.17;;;;;;;;;;8254052;28;20400;-58
2023/08/24 13:48:20;;;;;;;3.08;2.08;;;;;;;;;;8252598;28;20300;-58
2023/08/24 13:52:20;;;;;;;7.47;2.20;;;;;;;;;;8252734;28;20924;-58
2023/08/24 13:56:20;;;;;;;3.38;2.20;;;;;;;;;;8254437;28;20083;-57
2023/08/24 14:00:23;;;;;;;5.45;2.33;;;;;;;;;;8256279;28;20331;-57
2023/08/24 14:04:23;;;;;;;5.97;2.33;;;;;;;;;;8258292;28;20025;-57
2023/08/24 14:08:23;;;;;;;5.47;2.40;;;;;;;;;;8255120;28;20120;-57
2023/08/24 14:12:24;;;;;;;4.53;2.35;;;;;;;;;;8257353;28;20385;-58
2023/08/24 14:16:24;;;;;;;4.70;2.40;;;;;;;;;;8255574;28;20045;-57
2023/08/24 14:20:24;;;;;;;9.50;3.25;;;;;;;;;;8255912;28;20029;-57
2023/08/24 14:24:24;;;;;;;4.70;2.40;;;;;;;;;;8255663;28;20017;-57
2023/08/24 14:28:25;;;;;;;7.53;2.50;;;;;;;;;;8259705;28;20291;-57
2023/08/24 14:32:25;;;;;;;7.25;2.70;;;;;;;;;;8263420;28;20124;-57
2023/08/24 14:36:25;;;;;;;5.70;3.22;;;;;;;;;;8262122;28;20405;-57
2023/08/24 14:40:25;;;;;;;9.13;3.40;;;;;;;;;;8261393;28;20036;-57
2023/08/24 14:44:25;;;;;;;5.72;3.30;;;;;;;;;;8260622;28;20452;-56
2023/08/24 14:48:26;;;;;;;8.23;3.65;;;;;;;;;;8260942;28;20048;-57
2023/08/24 14:52:26;;;;;;;9.50;3.97;;;;;;;;;;8271503;28;20386;-58
2023/08/24 14:56:26;;;;;;;6.35;3.60;;;;;;;;;;8263315;28;20014;-57
2023/08/24 15:00:26;;;;;;;11.02;3.00;;;;;;;;;;8259645;28;20756;-57
2023/08/24 15:04:27;;;;;;;7.37;3.30;;;;;;;;;;8260548;28;20302;-57
2023/08/24 15:08:30;;;;;;;7.03;3.10;;;;;;;;;;8263226;28;20420;-57
2023/08/24 15:12:31;;;;;;;4.60;3.20;;;;;;;;;;8260873;28;20105;-58
2023/08/24 15:16:31;;;;;;;6.85;3.08;;;;;;;;;;8258418;28;20029;-58
2023/08/24 15:20:31;;;;;;;5.38;3.20;;;;;;;;;;8261029;28;20065;-58
2023/08/24 15:24:31;;;;;;;5.70;3.10;;;;;;;;;;8257352;28;20509;-58
2023/08/24 15:28:58;;;;;;;6.82;3.05;;;;;;;;;;8262233;28;20025;-57
2023/08/24 15:32:58;;;;;;;4.75;3.20;;;;;;;;;;8256913;28;20041;-57
2023/08/24 15:36:58;;;;;;;5.40;2.75;;;;;;;;;;8261967;28;20017;-57
2023/08/24 15:40:58;;;;;;;6.82;2.90;;;;;;;;;;8260103;28;20422;-57
2023/08/24 15:45:00;;;;;;;6.85;3.30;;;;;;;;;;8261175;28;20064;-56
2023/08/24 15:49:01;;;;;;;4.93;3.10;;;;;;;;;;8266593;28;20042;-56
2023/08/24 15:53:02;;;;;;;7.10;3.58;;;;;;;;;;8264740;28;20115;-56
2023/08/24 15:57:02;;;;;;;5.07;3.05;;;;;;;;;;8259630;28;20025;-57
2023/08/24 16:01:04;;;;;;;5.53;3.33;;;;;;;;;;8260442;28;20158;-57
2023/08/24 16:05:05;;;;;;;5.70;3.40;;;;;;;;;;8267435;28;20038;-57
2023/08/24 16:09:05;;;;;;;4.22;2.92;;;;;;;;;;8267675;28;21227;-56
2023/08/24 16:13:05;;;;;;;8.32;3.33;;;;;;;;;;8257144;28;20041;-56
2023/08/24 16:17:05;;;;;;;6.50;3.15;;;;;;;;;;8254999;28;20034;-57
2023/08/24 16:21:06;;;;;;;6.18;3.10;;;;;;;;;;8259090;28;20095;-56
2023/08/24 16:25:06;;;;;;;5.28;3.05;;;;;;;;;;8260546;28;20310;-56
2023/08/24 16:29:06;;;;;;;5.68;3.10;;;;;;;;;;8258918;28;20021;-56
2023/08/24 16:33:07;;;;;;;4.50;2.65;;;;;;;;;;8260166;28;20449;-56
2023/08/24 16:37:07;;;;;;;3.40;2.87;;;;;;;;;;8265186;28;20821;-57
2023/08/24 16:41:07;;;;;;;6.20;3.00;;;;;;;;;;8273834;28;21203;-58
2023/08/24 16:45:08;;;;;;;8.23;3.10;;;;;;;;;;8269139;28;20025;-56
2023/08/24 16:49:08;;;;;;;10.73;3.25;;;;;;;;;;8262389;28;20030;-57
2023/08/24 16:53:09;;;;;;;5.63;2.80;;;;;;;;;;8261169;28;20036;-56
2023/08/24 16:57:09;;;;;;;6.55;3.45;;;;;;;;;;8262397;28;20518;-56
2023/08/24 17:01:10;;;;;;;8.63;3.50;;;;;;;;;;8264891;28;20623;-56
2023/08/24 17:05:10;;;;;;;6.22;3.10;;;;;;;;;;8262981;28;20072;-56
2023/08/24 17:09:10;;;;;;;6.70;3.10;;;;;;;;;;8263315;28;20115;-56
2023/08/24 17:13:10;;;;;;;6.57;3.30;;;;;;;;;;8263729;28;20392;-56
2023/08/24 17:17:11;;;;;;;4.28;2.78;;;;;;;;;;8264661;28;20393;-56
2023/08/24 17:21:11;;;;;;;6.00;2.58;;;;;;;;;;8264729;28;20318;-56
2023/08/24 17:25:11;;;;;;;6.32;2.92;;;;;;;;;;8263267;28;20029;-56
2023/08/24 17:29:13;;;;;;;6.50;2.88;;;;;;;;;;8259573;28;20606;-56
2023/08/24 17:33:14;;;;;;;6.97;2.85;;;;;;;;;;8263222;28;20037;-56
2023/08/24 17:37:14;;;;;;;7.70;3.03;;;;;;;;;;8261740;28;21187;-56
2023/08/24 17:41:16;;;;;;;6.30;3.20;;;;;;;;;;8262677;28;20409;-56
2023/08/24 17:45:21;;;;;;;4.07;2.72;;;;;;;;;;8262782;28;20441;-55
2023/08/24 17:49:21;;;;;;;5.68;2.83;;;;;;;;;;8261905;28;20386;-56
2023/08/24 17:53:27;;;;;;;4.38;2.55;;;;;;;;;;8264941;28;20025;-56
2023/08/24 17:57:27;;;;;;;11.63;3.35;;;;;;;;;;8262921;28;20208;-56
2023/08/24 18:01:27;;;;;;;5.95;2.80;;;;;;;;;;8261796;28;20069;-56
2023/08/24 18:05:27;;;;;;;11.63;3.10;;;;;;;;;;8262485;28;20025;-56
2023/08/24 18:09:28;;;;;;;6.90;3.17;;;;;;;;;;8261046;28;20033;-56
2023/08/24 18:13:28;;;;;;;5.40;3.00;;;;;;;;;;8263759;28;20521;-57
2023/08/24 18:17:28;;;;;;;5.10;2.73;;;;;;;;;;8262912;28;20045;-56
2023/08/24 18:21:29;;;;;;;4.40;2.58;;;;;;;;;;8263204;28;20752;-56
2023/08/24 18:25:29;;;;;;;5.82;2.60;;;;;;;;;;8260587;28;20025;-57
2023/08/24 18:29:29;;;;;;;5.85;2.95;;;;;;;;;;8261088;28;20064;-56
2023/08/24 18:33:30;;;;;;;5.13;2.53;;;;;;;;;;8259217;28;20708;-56
2023/08/24 18:37:30;;;;;;;5.68;2.60;;;;;;;;;;8262915;28;20028;-57
2023/08/24 18:41:30;;;;;;;3.35;2.45;;;;;;;;;;8261582;28;20289;-57
2023/08/24 18:45:30;;;;;;;4.37;2.80;;;;;;;;;;8259258;28;20053;-57
2023/08/24 18:49:30;;;;;;;4.70;2.70;;;;;;;;;;8262458;28;20661;-56
2023/08/24 18:53:31;;;;;;;4.10;2.40;;;;;;;;;;8262570;28;20053;-56
2023/08/24 18:57:31;;;;;;;6.95;2.78;;;;;;;;;;8260046;28;20041;-56
2023/08/24 19:01:33;;;;;;;5.10;2.72;;;;;;;;;;8259602;28;20156;-56
2023/08/24 19:05:33;;;;;;;2.63;2.40;;;;;;;;;;8261654;28;20550;-57
2023/08/24 19:09:33;;;;;;;3.90;2.50;;;;;;;;;;8261864;28;20116;-56
2023/08/24 19:13:34;;;;;;;2.95;2.65;;;;;;;;;;8266050;28;20030;-56
2023/08/24 19:17:34;;;;;;;5.97;2.90;;;;;;;;;;8276321;28;20049;-55
2023/08/24 19:21:34;;;;;;;3.30;2.80;;;;;;;;;;8271998;28;20025;-56
2023/08/24 19:25:35;;;;;;;3.50;2.60;;;;;;;;;;8269026;28;20591;-56
2023/08/24 19:29:35;;;;;;;5.00;3.00;;;;;;;;;;8264210;28;20029;-56
2023/08/24 19:33:35;;;;;;;5.07;2.85;;;;;;;;;;8272943;28;20401;-56
2023/08/24 19:37:35;;;;;;;5.13;3.25;;;;;;;;;;8276215;28;20034;-57
2023/08/24 19:41:36;;;;;;;4.97;3.10;;;;;;;;;;8273636;28;20509;-56
2023/08/24 19:45:36;;;;;;;3.78;2.90;;;;;;;;;;8272710;28;20041;-57
2023/08/24 19:49:39;;;;;;;4.80;3.47;;;;;;;;;;8266420;28;21781;-56
2023/08/24 19:53:39;;;;;;;5.60;3.22;;;;;;;;;;8269859;28;20033;-56
2023/08/24 19:57:40;;;;;;;5.35;3.33;;;;;;;;;;8271204;28;20460;-56
2023/08/24 20:01:40;;;;;;;3.97;2.90;;;;;;;;;;8266085;28;20060;-57
2023/08/24 20:05:40;;;;;;;5.47;2.97;;;;;;;;;;8270704;28;20049;-57
2023/08/24 20:09:40;;;;;;;6.35;2.70;;;;;;;;;;8267008;28;20046;-57
2023/08/24 20:13:40;;;;;;;7.40;3.22;;;;;;;;;;8262184;28;20148;-56
2023/08/24 20:17:42;;;;;;;8.40;2.85;;;;;;;;;;8263822;28;20063;-56
2023/08/24 20:21:43;;;;;;;7.75;3.10;;;;;;;;;;8264760;28;20319;-56
2023/08/24 20:25:43;;;;;;;3.42;2.63;;;;;;;;;;8269553;28;20375;-57
2023/08/24 20:29:43;;;;;;;5.57;2.85;;;;;;;;;;8271051;28;20144;-57
2023/08/24 20:33:43;;;;;;;7.97;2.77;;;;;;;;;;8263479;28;20107;-57
2023/08/24 20:37:44;;;;;;;5.30;2.72;;;;;;;;;;8265093;28;20053;-57
2023/08/24 20:41:46;;;;;;;4.80;2.50;;;;;;;;;;8268184;28;20120;-57
2023/08/24 20:45:46;;;;;;;4.38;2.70;;;;;;;;;;8270859;28;20167;-56
2023/08/24 20:49:51;;;;;;;3.85;2.60;;;;;;;;;;8265066;28;20029;-57
2023/08/24 20:53:51;;;;;;;4.20;2.30;;;;;;;;;;8264098;28;20029;-57
2023/08/24 20:57:51;;;;;;;3.25;2.47;;;;;;;;;;8266006;28;20254;-57
2023/08/24 21:01:52;;;;;;;3.23;2.50;;;;;;;;;;8273999;28;20041;-57
2023/08/24 21:05:56;;;;;;;2.47;1.98;;;;;;;;;;8266711;28;20029;-58
2023/08/24 21:09:57;;;;;;;4.45;1.88;;;;;;;;;;8262779;28;20373;-58
2023/08/24 21:13:57;;;;;;;4.30;2.58;;;;;;;;;;8256297;28;20025;-57
2023/08/24 21:17:58;;;;;;;3.37;1.83;;;;;;;;;;8257544;28;20045;-58
2023/08/24 21:21:58;;;;;;;2.90;1.90;;;;;;;;;;8261077;28;20371;-58
2023/08/24 21:25:59;;;;;;;3.97;2.30;;;;;;;;;;8258114;28;20049;-57
2023/08/24 21:29:59;;;;;;;2.67;2.25;;;;;;;;;;8261410;28;20103;-57
2023/08/24 21:33:59;;;;;;;6.60;2.70;;;;;;;;;;8258452;28;20132;-57
2023/08/24 21:38:00;;;;;;;3.35;2.45;;;;;;;;;;8252777;28;20089;-57
2023/08/24 21:42:00;;;;;;;7.17;3.00;;;;;;;;;;8261340;28;20054;-57
2023/08/24 21:46:01;;;;;;;3.10;2.63;;;;;;;;;;8266212;28;20034;-57
2023/08/24 21:50:03;;;;;;;4.60;2.30;;;;;;;;;;8271353;28;20014;-58
2023/08/24 21:54:03;;;;;;;5.33;2.40;;;;;;;;;;8271566;28;20050;-57
2023/08/24 21:58:04;;;;;;;2.80;2.10;;;;;;;;;;8267046;28;20618;-58
2023/08/24 22:02:04;;;;;;;3.72;2.10;;;;;;;;;;8265468;28;20056;-57
2023/08/24 22:06:04;;;;;;;3.75;2.20;;;;;;;;;;8269933;28;20038;-58
2023/08/24 22:10:05;;;;;;;3.17;1.88;;;;;;;;;;8267083;28;20021;-57
2023/08/24 22:14:05;;;;;;;3.42;2.10;;;;;;;;;;8268255;28;20045;-57
2023/08/24 22:18:06;;;;;;;2.00;1.80;;;;;;;;;;8265978;28;20175;-58
2023/08/24 22:22:06;;;;;;;1.98;1.80;;;;;;;;;;8269088;28;20045;-57
2023/08/24 22:26:07;;;;;;;2.20;1.50;;;;;;;;;;8263886;28;20439;-57
2023/08/24 22:30:08;;;;;;;2.17;1.83;;;;;;;;;;8269125;28;20052;-58
2023/08/24 22:34:08;;;;;;;3.80;2.00;;;;;;;;;;8265370;28;20029;-57
2023/08/24 22:38:08;;;;;;;5.25;2.10;;;;;;;;;;8265628;28;20036;-59
2023/08/24 22:42:09;;;;;;;2.75;2.00;;;;;;;;;;8267383;28;20079;-57
2023/08/24 22:46:09;;;;;;;3.35;2.38;;;;;;;;;;8264677;28;20998;-57
2023/08/24 22:50:11;;;;;;;4.18;2.50;;;;;;;;;;8272410;28;20021;-57
2023/08/24 22:54:11;;;;;;;6.00;2.42;;;;;;;;;;8275338;28;20076;-57
2023/08/24 22:58:11;;;;;;;5.78;2.80;;;;;;;;;;8275974;28;20025;-57
2023/08/24 23:02:13;;;;;;;4.28;2.75;;;;;;;;;;8272409;28;20065;-57
2023/08/24 23:06:13;;;;;;;3.58;2.80;;;;;;;;;;8272925;28;20032;-57
2023/08/24 23:10:15;;;;;;;6.72;3.20;;;;;;;;;;8274258;28;20014;-57
2023/08/24 23:14:18;;;;;;;6.72;3.00;;;;;;;;;;8275796;28;20037;-57
2023/08/24 23:18:18;;;;;;;4.43;2.92;;;;;;;;;;8270235;28;20148;-57
2023/08/24 23:22:18;;;;;;;4.15;2.60;;;;;;;;;;8269810;28;20025;-58
2023/08/24 23:26:18;;;;;;;2.67;2.40;;;;;;;;;;8268083;28;20814;-58
2023/08/24 23:30:19;;;;;;;4.43;2.53;;;;;;;;;;8272423;28;20579;-57
2023/08/24 23:34:19;;;;;;;4.00;2.80;;;;;;;;;;8271610;28;20013;-58
2023/08/24 23:38:19;;;;;;;3.92;2.83;;;;;;;;;;8271000;28;21059;-58
2023/08/24 23:42:21;;;;;;;5.10;2.88;;;;;;;;;;8270643;28;20025;-57
2023/08/24 23:46:21;;;;;;;4.05;2.80;;;;;;;;;;8270559;28;20067;-58
2023/08/24 23:50:22;;;;;;;4.67;3.13;;;;;;;;;;8268784;28;20099;-58
2023/08/24 23:54:23;;;;;;;5.53;3.42;;;;;;;;;;8269482;28;20133;-58
2023/08/24 23:58:23;;;;;;;5.70;3.30;;;;;;;;;;8270386;28;20026;-57
